Time,TemperatureF,DewpointF,PressureIn,WindDirection,WindDirectionDegrees,WindSpeedMPH,WindSpeedGustMPH,Humidity,HourlyPrecipIn,Conditions,Clouds,dailyrainin,SoftwareType,DateUTC
2013-10-04 00:14:00,58.3,56.0,29.89,NNW,329,3.0,6.0,91,0.00,,,0.00,weatherlink.com 1.10,2013-10-04 05:14:00,
2013-10-04 00:29:00,58.2,56.0,29.89,NNW,333,0.0,6.0,91,0.00,,,0.00,weatherlink.com 1.10,2013-10-04 05:29:00,
2013-10-04 00:44:00,58.4,56.0,29.88,NNW,329,0.0,9.0,92,0.00,,,0.00,weatherlink.com 1.10,2013-10-04 05:44:00,
2013-10-04 00:59:00,58.5,56.0,29.88,NNE,30,0.0,3.0,92,0.00,,,0.00,weatherlink.com 1.10,2013-10-04 05:59:00,
2013-10-04 01:14:00,58.4,56.0,29.88,NNE,30,1.0,4.0,92,0.00,,,0.00,weatherlink.com 1.10,2013-10-04 06:14:00,
2013-10-04 01:29:00,58.4,56.0,29.89,ENE,62,0.0,4.0,92,0.00,,,0.00,weatherlink.com 1.10,2013-10-04 06:29:00,
2013-10-04 01:44:00,58.4,56.0,29.90,ENE,70,0.0,5.0,92,0.00,,,0.00,weatherlink.com 1.10,2013-10-04 06:44:00,
2013-10-04 01:59:00,58.5,56.0,29.90,ENE,71,2.0,4.0,92,0.00,,,0.00,weatherlink.com 1.10,2013-10-04 06:59:00,
2013-10-04 02:14:00,58.4,56.0,29.90,East,82,0.0,8.0,92,0.00,,,0.00,weatherlink.com 1.10,2013-10-04 07:14:00,
2013-10-04 02:29:00,58.1,56.0,29.91,ENE,72,0.0,5.0,92,0.00,,,0.00,weatherlink.com 1.10,2013-10-04 07:29:00,
2013-10-04 02:44:00,58.2,56.0,29.92,ENE,74,0.0,4.0,92,0.00,,,0.00,weatherlink.com 1.10,2013-10-04 07:44:00,
2013-10-04 02:59:00,58.1,56.0,29.91,ENE,74,0.0,2.0,92,0.00,,,0.00,weatherlink.com 1.10,2013-10-04 07:59:00,
2013-10-04 03:14:00,58.1,56.0,29.91,ENE,74,0.0,5.0,92,0.00,,,0.00,weatherlink.com 1.10,2013-10-04 08:14:00,
2013-10-04 03:29:00,58.1,56.0,29.92,East,83,0.0,6.0,92,0.00,,,0.00,weatherlink.com 1.10,2013-10-04 08:29:00,
2013-10-04 03:44:00,58.1,56.0,29.92,East,83,0.0,3.0,92,0.00,,,0.00,weatherlink.com 1.10,2013-10-04 08:44:00,
2013-10-04 03:59:00,58.2,56.0,29.91,East,83,0.0,3.0,92,0.01,,,0.01,weatherlink.com 1.10,2013-10-04 08:59:00,
2013-10-04 04:14:00,58.5,56.0,29.90,East,84,0.0,4.0,92,0.02,,,0.02,weatherlink.com 1.10,2013-10-04 09:14:00,
2013-10-04 04:30:00,58.6,56.0,29.91,East,81,0.0,4.0,92,0.03,,,0.03,weatherlink.com 1.10,2013-10-04 09:30:00,
2013-10-04 04:44:00,58.7,56.0,29.92,East,82,0.0,4.0,92,0.04,,,0.04,weatherlink.com 1.10,2013-10-04 09:44:00,
2013-10-04 04:59:00,58.8,57.0,29.92,East,92,0.0,6.0,92,0.03,,,0.04,weatherlink.com 1.10,2013-10-04 09:59:00,
2013-10-04 05:15:00,58.8,57.0,29.91,East,90,0.0,6.0,92,0.02,,,0.04,weatherlink.com 1.10,2013-10-04 10:15:00,
2013-10-04 05:30:00,58.8,57.0,29.89,NE,49,0.0,3.0,92,0.01,,,0.04,weatherlink.com 1.10,2013-10-04 10:30:00,
2013-10-04 05:45:00,58.8,57.0,29.88,East,82,0.0,6.0,92,0.00,,,0.04,weatherlink.com 1.10,2013-10-04 10:45:00,
2013-10-04 06:00:00,58.7,56.0,29.86,ENE,60,0.0,6.0,92,0.00,,,0.04,weatherlink.com 1.10,2013-10-04 11:00:00,
2013-10-04 06:15:00,58.6,56.0,29.86,NE,35,0.0,5.0,92,0.00,,,0.04,weatherlink.com 1.10,2013-10-04 11:15:00,
2013-10-04 06:30:00,58.3,56.0,29.87,NE,48,0.0,6.0,92,0.00,,,0.04,weatherlink.com 1.10,2013-10-04 11:30:00,
2013-10-04 06:45:00,58.4,56.0,29.88,NNE,24,0.0,2.0,92,0.00,,,0.04,weatherlink.com 1.10,2013-10-04 11:45:00,
2013-10-04 07:00:00,58.4,56.0,29.89,NE,44,0.0,2.0,92,0.00,,,0.04,weatherlink.com 1.10,2013-10-04 12:00:00,
2013-10-04 07:15:00,58.6,56.0,29.91,NE,44,0.0,2.0,92,0.00,,,0.04,weatherlink.com 1.10,2013-10-04 12:15:00,
2013-10-04 07:30:00,58.7,57.0,29.94,NE,44,0.0,1.0,93,0.00,,,0.04,weatherlink.com 1.10,2013-10-04 12:30:00,
2013-10-04 07:45:00,58.6,57.0,29.93,NE,44,0.0,2.0,93,0.00,,,0.04,weatherlink.com 1.10,2013-10-04 12:45:00,
2013-10-04 08:00:00,58.7,56.0,29.93,NE,44,0.0,3.0,92,0.00,,,0.04,weatherlink.com 1.10,2013-10-04 13:00:00,
2013-10-04 08:15:00,58.7,57.0,29.92,ENE,72,2.0,6.0,93,0.00,,,0.04,weatherlink.com 1.10,2013-10-04 13:15:00,
2013-10-04 08:30:00,58.8,57.0,29.89,ENE,62,2.0,10.0,93,0.00,,,0.04,weatherlink.com 1.10,2013-10-04 13:30:00,
2013-10-04 08:45:00,59.0,57.0,29.88,East,98,0.0,8.0,92,0.00,,,0.04,weatherlink.com 1.10,2013-10-04 13:45:00,
2013-10-04 09:00:00,59.4,57.0,29.88,ENE,71,2.0,5.0,93,0.00,,,0.04,weatherlink.com 1.10,2013-10-04 14:00:00,
2013-10-04 09:15:00,59.5,58.0,29.88,ENE,75,0.0,5.0,93,0.00,,,0.04,weatherlink.com 1.10,2013-10-04 14:15:00,
2013-10-04 09:30:00,59.8,58.0,29.88,ESE,109,0.0,6.0,92,0.00,,,0.04,weatherlink.com 1.10,2013-10-04 14:30:00,
2013-10-04 09:45:00,60.2,58.0,29.89,ENE,74,1.0,8.0,93,0.00,,,0.04,weatherlink.com 1.10,2013-10-04 14:45:00,
2013-10-04 10:00:00,60.7,59.0,29.91,East,86,0.0,3.0,93,0.00,,,0.04,weatherlink.com 1.10,2013-10-04 15:00:00,
2013-10-04 10:15:00,61.3,59.0,29.92,East,86,0.0,2.0,93,0.00,,,0.04,weatherlink.com 1.10,2013-10-04 15:15:00,
2013-10-04 10:30:00,61.5,60.0,29.93,ESE,114,0.0,4.0,93,0.00,,,0.04,weatherlink.com 1.10,2013-10-04 15:30:00,
2013-10-04 10:45:00,61.8,60.0,29.94,ESE,114,2.0,2.0,93,0.00,,,0.04,weatherlink.com 1.10,2013-10-04 15:45:00,
2013-10-04 11:00:00,62.2,60.0,29.93,ESE,117,0.0,3.0,93,0.00,,,0.04,weatherlink.com 1.10,2013-10-04 16:00:00,
2013-10-04 11:15:00,62.6,61.0,29.92,ENE,78,0.0,6.0,93,0.00,,,0.04,weatherlink.com 1.10,2013-10-04 16:15:00,
2013-10-04 11:30:00,62.9,61.0,29.91,East,82,0.0,6.0,92,0.00,,,0.04,weatherlink.com 1.10,2013-10-04 16:30:00,
2013-10-04 11:45:00,63.2,61.0,29.90,ENE,71,0.0,5.0,93,0.00,,,0.04,weatherlink.com 1.10,2013-10-04 16:45:00,
2013-10-04 12:00:00,63.9,62.0,29.90,East,84,3.0,8.0,92,0.00,,,0.04,weatherlink.com 1.10,2013-10-04 17:00:00,
2013-10-04 12:15:00,64.8,62.0,29.91,ESE,107,1.0,6.0,91,0.00,,,0.04,weatherlink.com 1.10,2013-10-04 17:15:00,
2013-10-04 12:30:00,65.6,62.0,29.91,East,84,2.0,8.0,87,0.00,,,0.04,weatherlink.com 1.10,2013-10-04 17:30:00,
2013-10-04 13:00:00,68.5,61.0,29.90,East,90,4.0,11.0,78,0.00,,,0.04,weatherlink.com 1.10,2013-10-04 18:00:00,
2013-10-04 13:15:00,69.1,61.0,29.90,SSE,160,4.0,11.0,75,0.00,,,0.04,weatherlink.com 1.10,2013-10-04 18:15:00,
2013-10-04 13:30:00,68.3,60.0,29.89,East,84,3.0,11.0,75,0.00,,,0.04,weatherlink.com 1.10,2013-10-04 18:30:00,
2013-10-04 13:45:00,67.9,60.0,29.87,ESE,120,1.0,10.0,77,0.00,,,0.04,weatherlink.com 1.10,2013-10-04 18:45:00,
2013-10-04 14:00:00,69.3,61.0,29.86,East,86,3.0,11.0,76,0.00,,,0.04,weatherlink.com 1.10,2013-10-04 19:00:00,
2013-10-04 14:15:00,70.1,61.0,29.86,SSW,198,3.0,14.0,74,0.00,,,0.04,weatherlink.com 1.10,2013-10-04 19:15:00,
2013-10-04 14:31:00,70.7,61.0,29.87,ESE,110,3.0,12.0,72,0.00,,,0.04,weatherlink.com 1.10,2013-10-04 19:31:00,
2013-10-04 14:46:00,70.7,61.0,29.87,SW,222,1.0,5.0,72,0.00,,,0.04,weatherlink.com 1.10,2013-10-04 19:46:00,
2013-10-04 15:01:00,71.1,62.0,29.87,NE,53,0.0,9.0,72,0.00,,,0.04,weatherlink.com 1.10,2013-10-04 20:01:00,
2013-10-04 15:16:00,70.4,61.0,29.88,ENE,71,0.0,10.0,73,0.00,,,0.04,weatherlink.com 1.10,2013-10-04 20:16:00,
2013-10-04 15:31:00,69.6,61.0,29.87,SE,146,0.0,2.0,75,0.00,,,0.04,weatherlink.com 1.10,2013-10-04 20:31:00,
2013-10-04 15:46:00,68.8,62.0,29.84,ENE,75,0.0,10.0,78,0.00,,,0.04,weatherlink.com 1.10,2013-10-04 20:46:00,
2013-10-04 16:01:00,68.4,62.0,29.84,ENE,72,1.0,6.0,79,0.00,,,0.04,weatherlink.com 1.10,2013-10-04 21:01:00,
2013-10-04 16:16:00,68.8,62.0,29.84,SE,124,2.0,5.0,79,0.00,,,0.04,weatherlink.com 1.10,2013-10-04 21:16:00,
2013-10-04 16:31:00,68.4,61.0,29.84,East,88,0.0,6.0,78,0.00,,,0.04,weatherlink.com 1.10,2013-10-04 21:31:00,
2013-10-04 16:46:00,68.0,62.0,29.85,ENE,78,0.0,3.0,81,0.00,,,0.04,weatherlink.com 1.10,2013-10-04 21:46:00,
2013-10-04 17:01:00,67.5,62.0,29.85,ENE,74,1.0,5.0,82,0.00,,,0.04,weatherlink.com 1.10,2013-10-04 22:01:00,
2013-10-04 17:16:00,66.6,62.0,29.85,ENE,76,0.0,6.0,84,0.01,,,0.05,weatherlink.com 1.10,2013-10-04 22:16:00,
2013-10-04 17:31:00,65.4,62.0,29.83,East,85,0.0,4.0,87,0.09,,,0.13,weatherlink.com 1.10,2013-10-04 22:31:00,
2013-10-04 17:46:00,64.9,61.0,29.84,East,99,0.0,8.0,88,0.09,,,0.13,weatherlink.com 1.10,2013-10-04 22:46:00,
2013-10-04 18:01:00,64.8,61.0,29.84,SE,127,1.0,7.0,88,0.10,,,0.14,weatherlink.com 1.10,2013-10-04 23:01:00,
2013-10-04 18:16:00,64.9,62.0,29.84,East,84,0.0,8.0,89,0.09,,,0.15,weatherlink.com 1.10,2013-10-04 23:16:00,
2013-10-04 18:31:00,64.7,62.0,29.85,ESE,105,0.0,4.0,89,0.15,,,0.28,weatherlink.com 1.10,2013-10-04 23:31:00,
2013-10-04 18:46:00,63.0,59.0,29.82,East,96,0.0,6.0,88,0.16,,,0.29,weatherlink.com 1.10,2013-10-04 23:46:00,
2013-10-04 19:01:00,62.5,59.0,29.84,WNW,299,2.0,8.0,89,0.15,,,0.29,weatherlink.com 1.10,2013-10-05 00:01:00,
2013-10-04 19:16:00,63.1,60.0,29.83,SSE,155,3.0,8.0,89,0.14,,,0.30,weatherlink.com 1.10,2013-10-05 00:16:00,
2013-10-04 19:31:00,63.6,60.0,29.83,NNW,333,0.0,12.0,89,0.02,,,0.30,weatherlink.com 1.10,2013-10-05 00:31:00,
2013-10-04 19:46:00,64.2,61.0,29.82,East,84,0.0,6.0,89,0.02,,,0.31,weatherlink.com 1.10,2013-10-05 00:46:00,
2013-10-04 20:01:00,64.5,62.0,29.82,East,84,0.0,1.0,90,0.02,,,0.31,weatherlink.com 1.10,2013-10-05 01:01:00,
2013-10-04 20:16:00,64.6,62.0,29.81,East,88,1.0,4.0,90,0.01,,,0.31,weatherlink.com 1.10,2013-10-05 01:16:00,
2013-10-04 20:31:00,64.6,62.0,29.80,ENE,69,0.0,4.0,90,0.01,,,0.31,weatherlink.com 1.10,2013-10-05 01:31:00,
2013-10-04 20:46:00,64.8,62.0,29.80,ENE,69,0.0,3.0,90,0.00,,,0.31,weatherlink.com 1.10,2013-10-05 01:46:00,
2013-10-04 21:01:00,64.9,62.0,29.80,ENE,72,0.0,6.0,90,0.00,,,0.31,weatherlink.com 1.10,2013-10-05 02:01:00,
2013-10-04 21:16:00,65.0,62.0,29.82,ENE,73,0.0,1.0,90,0.00,,,0.31,weatherlink.com 1.10,2013-10-05 02:16:00,
2013-10-04 21:31:00,65.4,63.0,29.80,SSE,161,0.0,7.0,90,0.00,,,0.31,weatherlink.com 1.10,2013-10-05 02:31:00,
2013-10-04 21:46:00,65.3,62.0,29.78,East,83,2.0,4.0,90,0.00,,,0.31,weatherlink.com 1.10,2013-10-05 02:46:00,
2013-10-04 22:01:00,65.2,62.0,29.80,East,93,0.0,6.0,90,0.00,,,0.31,weatherlink.com 1.10,2013-10-05 03:01:00,
2013-10-04 22:16:00,65.3,62.0,29.78,ENE,77,1.0,6.0,90,0.00,,,0.31,weatherlink.com 1.10,2013-10-05 03:16:00,
2013-10-04 22:31:00,65.8,63.0,29.79,East,80,2.0,3.0,90,0.01,,,0.32,weatherlink.com 1.10,2013-10-05 03:31:00,
2013-10-04 22:46:00,66.4,64.0,29.78,ENE,69,1.0,8.0,90,0.04,,,0.35,weatherlink.com 1.10,2013-10-05 03:46:00,
2013-10-04 23:01:00,67.0,64.0,29.75,ESE,102,0.0,8.0,91,0.05,,,0.36,weatherlink.com 1.10,2013-10-05 04:01:00,
2013-10-04 23:16:00,67.5,65.0,29.77,SE,125,1.0,7.0,91,0.05,,,0.36,weatherlink.com 1.10,2013-10-05 04:16:00,
2013-10-04 23:31:00,67.8,65.0,29.79,WNW,298,0.0,2.0,91,0.04,,,0.36,weatherlink.com 1.10,2013-10-05 04:31:00,
2013-10-04 23:46:00,67.7,65.0,29.80,NW,321,0.0,5.0,91,0.12,,,0.47,weatherlink.com 1.10,2013-10-05 04:46:00,